sensor_id;sensor_type;location;lat;lon;timestamp;P1;durP1;ratioP1;P2;durP2;ratioP2
49384;SDS011;36795;45.028;38.968;2022-07-06T00:00:58;28.65;;;11.82;;
49384;SDS011;36795;45.028;38.968;2022-07-06T00:03:44;31.05;;;11.20;;
49384;SDS011;36795;45.028;38.968;2022-07-06T00:06:31;27.23;;;11.18;;
49384;SDS011;36795;45.028;38.968;2022-07-06T00:09:17;27.33;;;11.45;;
49384;SDS011;36795;45.028;38.968;2022-07-06T00:12:07;27.95;;;11.82;;
49384;SDS011;36795;45.028;38.968;2022-07-06T00:14:53;29.45;;;11.57;;
49384;SDS011;36795;45.028;38.968;2022-07-06T00:17:39;25.77;;;11.00;;
49384;SDS011;36795;45.028;38.968;2022-07-06T00:20:25;29.02;;;11.00;;
49384;SDS011;36795;45.028;38.968;2022-07-06T00:23:11;31.73;;;12.10;;
49384;SDS011;36795;45.028;38.968;2022-07-06T00:25:58;31.58;;;11.65;;
49384;SDS011;36795;45.028;38.968;2022-07-06T00:28:43;29.73;;;11.85;;
49384;SDS011;36795;45.028;38.968;2022-07-06T00:31:30;30.05;;;11.05;;
49384;SDS011;36795;45.028;38.968;2022-07-06T00:34:16;31.92;;;10.75;;
49384;SDS011;36795;45.028;38.968;2022-07-06T00:37:02;30.37;;;11.15;;
49384;SDS011;36795;45.028;38.968;2022-07-06T00:39:48;27.77;;;10.45;;
49384;SDS011;36795;45.028;38.968;2022-07-06T00:42:38;27.85;;;10.55;;
49384;SDS011;36795;45.028;38.968;2022-07-06T00:45:31;33.17;;;11.95;;
49384;SDS011;36795;45.028;38.968;2022-07-06T00:48:18;27.05;;;10.23;;
49384;SDS011;36795;45.028;38.968;2022-07-06T00:51:04;30.40;;;11.48;;
49384;SDS011;36795;45.028;38.968;2022-07-06T00:53:50;29.20;;;11.40;;
49384;SDS011;36795;45.028;38.968;2022-07-06T00:56:37;28.20;;;10.82;;
49384;SDS011;36795;45.028;38.968;2022-07-06T00:59:24;28.15;;;11.57;;
49384;SDS011;36795;45.028;38.968;2022-07-06T01:02:11;26.52;;;11.02;;
49384;SDS011;36795;45.028;38.968;2022-07-06T01:04:58;28.52;;;11.25;;
49384;SDS011;36795;45.028;38.968;2022-07-06T01:07:45;32.42;;;11.40;;
49384;SDS011;36795;45.028;38.968;2022-07-06T01:10:34;31.35;;;10.85;;
49384;SDS011;36795;45.028;38.968;2022-07-06T01:13:20;28.90;;;11.00;;
49384;SDS011;36795;45.028;38.968;2022-07-06T01:16:06;30.75;;;10.75;;
49384;SDS011;36795;45.028;38.968;2022-07-06T01:18:52;27.30;;;10.80;;
49384;SDS011;36795;45.028;38.968;2022-07-06T01:21:38;31.65;;;10.38;;
49384;SDS011;36795;45.028;38.968;2022-07-06T01:24:25;32.35;;;10.32;;
49384;SDS011;36795;45.028;38.968;2022-07-06T01:27:12;31.23;;;10.05;;
49384;SDS011;36795;45.028;38.968;2022-07-06T01:29:58;26.77;;;9.82;;
49384;SDS011;36795;45.028;38.968;2022-07-06T01:32:45;26.83;;;9.15;;
49384;SDS011;36795;45.028;38.968;2022-07-06T01:35:31;31.25;;;10.15;;
49384;SDS011;36795;45.028;38.968;2022-07-06T01:38:18;28.35;;;9.35;;
49384;SDS011;36795;45.028;38.968;2022-07-06T01:41:07;27.90;;;10.18;;
49384;SDS011;36795;45.028;38.968;2022-07-06T01:43:54;28.60;;;9.63;;
49384;SDS011;36795;45.028;38.968;2022-07-06T01:46:40;31.23;;;8.68;;
49384;SDS011;36795;45.028;38.968;2022-07-06T01:49:27;27.10;;;8.45;;
49384;SDS011;36795;45.028;38.968;2022-07-06T01:52:12;28.17;;;9.02;;
49384;SDS011;36795;45.028;38.968;2022-07-06T01:54:59;25.10;;;8.45;;
49384;SDS011;36795;45.028;38.968;2022-07-06T01:57:45;26.75;;;8.88;;
49384;SDS011;36795;45.028;38.968;2022-07-06T02:00:32;30.17;;;8.45;;
49384;SDS011;36795;45.028;38.968;2022-07-06T02:03:18;28.17;;;8.75;;
49384;SDS011;36795;45.028;38.968;2022-07-06T02:06:04;28.02;;;8.18;;
49384;SDS011;36795;45.028;38.968;2022-07-06T02:08:52;27.70;;;8.63;;
49384;SDS011;36795;45.028;38.968;2022-07-06T02:11:39;30.98;;;8.57;;
49384;SDS011;36795;45.028;38.968;2022-07-06T02:14:25;26.55;;;8.45;;
49384;SDS011;36795;45.028;38.968;2022-07-06T02:17:11;32.28;;;8.10;;
49384;SDS011;36795;45.028;38.968;2022-07-06T02:19:57;24.58;;;8.35;;
49384;SDS011;36795;45.028;38.968;2022-07-06T02:22:44;28.50;;;8.65;;
49384;SDS011;36795;45.028;38.968;2022-07-06T02:25:31;29.58;;;8.25;;
49384;SDS011;36795;45.028;38.968;2022-07-06T02:28:17;27.55;;;8.85;;
49384;SDS011;36795;45.028;38.968;2022-07-06T02:31:04;27.87;;;8.63;;
49384;SDS011;36795;45.028;38.968;2022-07-06T02:33:50;28.83;;;8.52;;
49384;SDS011;36795;45.028;38.968;2022-07-06T02:36:37;28.75;;;8.40;;
49384;SDS011;36795;45.028;38.968;2022-07-06T02:39:24;27.92;;;8.82;;
49384;SDS011;36795;45.028;38.968;2022-07-06T02:42:10;32.28;;;8.35;;
49384;SDS011;36795;45.028;38.968;2022-07-06T02:44:56;23.55;;;7.62;;
49384;SDS011;36795;45.028;38.968;2022-07-06T02:47:43;25.75;;;7.78;;
49384;SDS011;36795;45.028;38.968;2022-07-06T02:50:29;31.75;;;8.43;;
49384;SDS011;36795;45.028;38.968;2022-07-06T02:53:17;29.00;;;8.55;;
49384;SDS011;36795;45.028;38.968;2022-07-06T02:56:06;24.23;;;7.70;;
49384;SDS011;36795;45.028;38.968;2022-07-06T02:58:53;28.50;;;8.10;;
49384;SDS011;36795;45.028;38.968;2022-07-06T03:01:39;25.27;;;7.72;;
49384;SDS011;36795;45.028;38.968;2022-07-06T03:04:25;26.62;;;7.70;;
49384;SDS011;36795;45.028;38.968;2022-07-06T03:07:11;36.10;;;9.00;;
49384;SDS011;36795;45.028;38.968;2022-07-06T03:09:57;26.17;;;7.60;;
49384;SDS011;36795;45.028;38.968;2022-07-06T03:12:44;34.47;;;7.87;;
49384;SDS011;36795;45.028;38.968;2022-07-06T03:15:30;25.92;;;7.45;;
49384;SDS011;36795;45.028;38.968;2022-07-06T03:18:17;22.92;;;6.78;;
49384;SDS011;36795;45.028;38.968;2022-07-06T03:21:03;24.70;;;7.72;;
49384;SDS011;36795;45.028;38.968;2022-07-06T03:23:50;23.08;;;7.20;;
49384;SDS011;36795;45.028;38.968;2022-07-06T03:26:36;28.73;;;7.95;;
49384;SDS011;36795;45.028;38.968;2022-07-06T03:29:22;21.65;;;6.53;;
49384;SDS011;36795;45.028;38.968;2022-07-06T03:32:09;27.52;;;7.57;;
49384;SDS011;36795;45.028;38.968;2022-07-06T03:34:56;24.37;;;7.37;;
49384;SDS011;36795;45.028;38.968;2022-07-06T03:37:43;26.65;;;7.75;;
49384;SDS011;36795;45.028;38.968;2022-07-06T03:40:28;23.17;;;7.12;;
49384;SDS011;36795;45.028;38.968;2022-07-06T03:43:14;29.67;;;7.50;;
49384;SDS011;36795;45.028;38.968;2022-07-06T03:46:01;24.42;;;7.22;;
49384;SDS011;36795;45.028;38.968;2022-07-06T03:48:47;26.15;;;7.12;;
49384;SDS011;36795;45.028;38.968;2022-07-06T03:51:34;25.42;;;8.43;;
49384;SDS011;36795;45.028;38.968;2022-07-06T03:54:21;25.40;;;7.57;;
49384;SDS011;36795;45.028;38.968;2022-07-06T03:57:07;25.12;;;6.85;;
49384;SDS011;36795;45.028;38.968;2022-07-06T03:59:53;21.17;;;6.85;;
49384;SDS011;36795;45.028;38.968;2022-07-06T04:02:40;29.90;;;7.20;;
49384;SDS011;36795;45.028;38.968;2022-07-06T04:05:27;22.87;;;7.87;;
49384;SDS011;36795;45.028;38.968;2022-07-06T04:08:13;27.80;;;6.62;;
49384;SDS011;36795;45.028;38.968;2022-07-06T04:11:00;24.25;;;7.25;;
49384;SDS011;36795;45.028;38.968;2022-07-06T04:13:47;27.08;;;8.15;;
49384;SDS011;36795;45.028;38.968;2022-07-06T04:16:34;22.48;;;7.60;;
49384;SDS011;36795;45.028;38.968;2022-07-06T04:19:19;25.20;;;7.95;;
49384;SDS011;36795;45.028;38.968;2022-07-06T04:22:06;22.85;;;7.12;;
49384;SDS011;36795;45.028;38.968;2022-07-06T04:24:52;23.62;;;7.28;;
49384;SDS011;36795;45.028;38.968;2022-07-06T04:27:39;27.37;;;7.75;;
49384;SDS011;36795;45.028;38.968;2022-07-06T04:30:26;25.20;;;6.95;;
49384;SDS011;36795;45.028;38.968;2022-07-06T04:33:12;26.48;;;8.00;;
49384;SDS011;36795;45.028;38.968;2022-07-06T04:35:59;23.12;;;6.60;;
49384;SDS011;36795;45.028;38.968;2022-07-06T04:38:46;24.50;;;7.35;;
49384;SDS011;36795;45.028;38.968;2022-07-06T04:41:33;24.73;;;7.25;;
49384;SDS011;36795;45.028;38.968;2022-07-06T04:44:20;30.30;;;9.60;;
49384;SDS011;36795;45.028;38.968;2022-07-06T04:47:06;23.10;;;6.80;;
49384;SDS011;36795;45.028;38.968;2022-07-06T04:49:53;21.23;;;7.18;;
49384;SDS011;36795;45.028;38.968;2022-07-06T04:52:40;29.55;;;7.70;;
49384;SDS011;36795;45.028;38.968;2022-07-06T04:55:28;23.85;;;7.55;;
49384;SDS011;36795;45.028;38.968;2022-07-06T04:58:16;23.40;;;6.87;;
49384;SDS011;36795;45.028;38.968;2022-07-06T05:01:02;24.23;;;7.45;;
49384;SDS011;36795;45.028;38.968;2022-07-06T05:03:48;25.25;;;7.65;;
49384;SDS011;36795;45.028;38.968;2022-07-06T05:06:37;22.35;;;7.25;;
49384;SDS011;36795;45.028;38.968;2022-07-06T05:09:23;25.88;;;7.35;;
49384;SDS011;36795;45.028;38.968;2022-07-06T05:12:10;26.42;;;6.90;;
49384;SDS011;36795;45.028;38.968;2022-07-06T05:14:56;24.17;;;7.62;;
49384;SDS011;36795;45.028;38.968;2022-07-06T05:17:43;24.95;;;7.45;;
49384;SDS011;36795;45.028;38.968;2022-07-06T05:20:29;20.70;;;6.93;;
49384;SDS011;36795;45.028;38.968;2022-07-06T05:23:22;24.48;;;7.40;;
49384;SDS011;36795;45.028;38.968;2022-07-06T05:26:08;28.60;;;7.40;;
49384;SDS011;36795;45.028;38.968;2022-07-06T05:28:56;24.58;;;7.10;;
49384;SDS011;36795;45.028;38.968;2022-07-06T05:31:43;28.25;;;7.03;;
49384;SDS011;36795;45.028;38.968;2022-07-06T05:34:30;31.85;;;8.82;;
49384;SDS011;36795;45.028;38.968;2022-07-06T05:37:16;29.05;;;8.10;;
49384;SDS011;36795;45.028;38.968;2022-07-06T05:40:07;28.87;;;7.37;;
49384;SDS011;36795;45.028;38.968;2022-07-06T05:42:54;28.83;;;7.70;;
49384;SDS011;36795;45.028;38.968;2022-07-06T05:45:41;29.35;;;7.78;;
49384;SDS011;36795;45.028;38.968;2022-07-06T05:48:28;29.75;;;7.35;;
49384;SDS011;36795;45.028;38.968;2022-07-06T05:51:33;26.85;;;7.65;;
49384;SDS011;36795;45.028;38.968;2022-07-06T05:54:18;24.25;;;6.82;;
49384;SDS011;36795;45.028;38.968;2022-07-06T05:57:06;23.75;;;6.75;;
49384;SDS011;36795;45.028;38.968;2022-07-06T05:59:52;29.08;;;7.12;;
49384;SDS011;36795;45.028;38.968;2022-07-06T06:02:39;34.58;;;7.72;;
49384;SDS011;36795;45.028;38.968;2022-07-06T06:05:28;31.58;;;7.78;;
49384;SDS011;36795;45.028;38.968;2022-07-06T06:08:14;27.42;;;7.68;;
49384;SDS011;36795;45.028;38.968;2022-07-06T06:11:02;24.08;;;7.40;;
49384;SDS011;36795;45.028;38.968;2022-07-06T06:13:48;28.80;;;8.05;;
49384;SDS011;36795;45.028;38.968;2022-07-06T06:16:38;27.42;;;8.02;;
49384;SDS011;36795;45.028;38.968;2022-07-06T06:19:24;30.10;;;7.03;;
49384;SDS011;36795;45.028;38.968;2022-07-06T06:22:11;26.95;;;7.25;;
49384;SDS011;36795;45.028;38.968;2022-07-06T06:24:59;34.38;;;7.78;;
49384;SDS011;36795;45.028;38.968;2022-07-06T06:27:45;28.45;;;8.48;;
49384;SDS011;36795;45.028;38.968;2022-07-06T06:30:32;32.60;;;7.75;;
49384;SDS011;36795;45.028;38.968;2022-07-06T06:33:19;32.85;;;8.20;;
49384;SDS011;36795;45.028;38.968;2022-07-06T06:36:05;24.30;;;6.82;;
49384;SDS011;36795;45.028;38.968;2022-07-06T06:38:52;25.55;;;6.62;;
49384;SDS011;36795;45.028;38.968;2022-07-06T06:41:38;27.13;;;6.65;;
49384;SDS011;36795;45.028;38.968;2022-07-06T06:44:24;26.60;;;6.10;;
49384;SDS011;36795;45.028;38.968;2022-07-06T06:47:10;26.90;;;6.45;;
49384;SDS011;36795;45.028;38.968;2022-07-06T06:49:56;25.48;;;5.50;;
49384;SDS011;36795;45.028;38.968;2022-07-06T06:52:42;21.50;;;5.30;;
49384;SDS011;36795;45.028;38.968;2022-07-06T06:55:28;21.02;;;5.00;;
49384;SDS011;36795;45.028;38.968;2022-07-06T06:58:14;31.45;;;7.00;;
49384;SDS011;36795;45.028;38.968;2022-07-06T07:01:01;25.80;;;4.93;;
49384;SDS011;36795;45.028;38.968;2022-07-06T07:03:46;28.52;;;5.28;;
49384;SDS011;36795;45.028;38.968;2022-07-06T07:06:33;23.05;;;4.90;;
49384;SDS011;36795;45.028;38.968;2022-07-06T07:09:19;25.17;;;5.60;;
49384;SDS011;36795;45.028;38.968;2022-07-06T07:12:05;26.80;;;5.75;;
49384;SDS011;36795;45.028;38.968;2022-07-06T07:14:51;23.33;;;4.80;;
49384;SDS011;36795;45.028;38.968;2022-07-06T07:17:38;27.50;;;7.37;;
49384;SDS011;36795;45.028;38.968;2022-07-06T07:20:24;24.85;;;5.07;;
49384;SDS011;36795;45.028;38.968;2022-07-06T07:23:10;23.65;;;4.65;;
49384;SDS011;36795;45.028;38.968;2022-07-06T07:25:56;24.73;;;4.80;;
49384;SDS011;36795;45.028;38.968;2022-07-06T07:28:43;23.45;;;5.25;;
49384;SDS011;36795;45.028;38.968;2022-07-06T07:31:28;20.52;;;5.25;;
49384;SDS011;36795;45.028;38.968;2022-07-06T07:34:15;24.25;;;5.22;;
49384;SDS011;36795;45.028;38.968;2022-07-06T07:37:02;24.00;;;5.60;;
49384;SDS011;36795;45.028;38.968;2022-07-06T07:39:48;27.92;;;5.00;;
49384;SDS011;36795;45.028;38.968;2022-07-06T07:42:34;24.27;;;6.03;;
49384;SDS011;36795;45.028;38.968;2022-07-06T07:45:25;23.40;;;5.50;;
49384;SDS011;36795;45.028;38.968;2022-07-06T07:48:11;23.25;;;5.20;;
49384;SDS011;36795;45.028;38.968;2022-07-06T07:50:57;24.10;;;5.30;;
49384;SDS011;36795;45.028;38.968;2022-07-06T07:53:43;22.23;;;5.37;;
49384;SDS011;36795;45.028;38.968;2022-07-06T07:56:30;26.80;;;5.12;;
49384;SDS011;36795;45.028;38.968;2022-07-06T07:59:15;19.42;;;4.87;;
49384;SDS011;36795;45.028;38.968;2022-07-06T08:02:02;19.30;;;5.05;;
49384;SDS011;36795;45.028;38.968;2022-07-06T08:04:48;21.98;;;5.40;;
49384;SDS011;36795;45.028;38.968;2022-07-06T08:07:34;17.60;;;4.68;;
49384;SDS011;36795;45.028;38.968;2022-07-06T08:10:20;19.67;;;4.85;;
49384;SDS011;36795;45.028;38.968;2022-07-06T08:13:06;22.30;;;4.78;;
49384;SDS011;36795;45.028;38.968;2022-07-06T08:15:52;19.42;;;4.87;;
49384;SDS011;36795;45.028;38.968;2022-07-06T08:18:39;20.92;;;5.28;;
49384;SDS011;36795;45.028;38.968;2022-07-06T08:21:25;17.52;;;4.47;;
49384;SDS011;36795;45.028;38.968;2022-07-06T08:24:11;17.25;;;3.92;;
49384;SDS011;36795;45.028;38.968;2022-07-06T08:26:58;17.75;;;5.40;;
49384;SDS011;36795;45.028;38.968;2022-07-06T08:29:44;20.80;;;4.47;;
49384;SDS011;36795;45.028;38.968;2022-07-06T08:32:30;23.33;;;4.85;;
49384;SDS011;36795;45.028;38.968;2022-07-06T08:35:16;17.17;;;4.43;;
49384;SDS011;36795;45.028;38.968;2022-07-06T08:38:02;21.52;;;4.93;;
49384;SDS011;36795;45.028;38.968;2022-07-06T08:40:49;22.37;;;4.00;;
49384;SDS011;36795;45.028;38.968;2022-07-06T08:43:36;12.85;;;3.60;;
49384;SDS011;36795;45.028;38.968;2022-07-06T08:46:22;14.57;;;3.70;;
49384;SDS011;36795;45.028;38.968;2022-07-06T08:49:09;21.23;;;4.65;;
49384;SDS011;36795;45.028;38.968;2022-07-06T08:52:00;16.67;;;4.05;;
49384;SDS011;36795;45.028;38.968;2022-07-06T08:54:48;19.83;;;4.15;;
49384;SDS011;36795;45.028;38.968;2022-07-06T08:57:33;15.45;;;4.40;;
49384;SDS011;36795;45.028;38.968;2022-07-06T09:00:20;21.75;;;4.97;;
49384;SDS011;36795;45.028;38.968;2022-07-06T09:03:07;15.00;;;4.03;;
49384;SDS011;36795;45.028;38.968;2022-07-06T09:05:58;17.85;;;4.35;;
49384;SDS011;36795;45.028;38.968;2022-07-06T09:08:48;19.73;;;3.72;;
49384;SDS011;36795;45.028;38.968;2022-07-06T09:11:35;19.62;;;4.95;;
49384;SDS011;36795;45.028;38.968;2022-07-06T09:14:22;20.02;;;4.80;;
49384;SDS011;36795;45.028;38.968;2022-07-06T09:17:09;16.80;;;3.87;;
49384;SDS011;36795;45.028;38.968;2022-07-06T09:19:56;17.33;;;3.10;;
49384;SDS011;36795;45.028;38.968;2022-07-06T09:22:43;9.15;;;3.10;;
49384;SDS011;36795;45.028;38.968;2022-07-06T09:25:29;14.32;;;4.35;;
49384;SDS011;36795;45.028;38.968;2022-07-06T09:28:16;15.40;;;3.53;;
49384;SDS011;36795;45.028;38.968;2022-07-06T09:31:06;11.23;;;3.47;;
49384;SDS011;36795;45.028;38.968;2022-07-06T09:33:57;12.52;;;3.10;;
49384;SDS011;36795;45.028;38.968;2022-07-06T09:36:50;10.95;;;3.17;;
49384;SDS011;36795;45.028;38.968;2022-07-06T09:39:37;11.80;;;3.33;;
49384;SDS011;36795;45.028;38.968;2022-07-06T09:42:26;10.50;;;3.35;;
49384;SDS011;36795;45.028;38.968;2022-07-06T09:45:19;16.10;;;3.60;;
49384;SDS011;36795;45.028;38.968;2022-07-06T09:48:06;13.73;;;3.03;;
49384;SDS011;36795;45.028;38.968;2022-07-06T09:50:58;13.82;;;3.60;;
49384;SDS011;36795;45.028;38.968;2022-07-06T09:53:50;12.90;;;3.30;;
49384;SDS011;36795;45.028;38.968;2022-07-06T09:56:39;14.00;;;3.80;;
49384;SDS011;36795;45.028;38.968;2022-07-06T09:59:27;14.25;;;3.60;;
49384;SDS011;36795;45.028;38.968;2022-07-06T10:02:15;15.65;;;4.03;;
49384;SDS011;36795;45.028;38.968;2022-07-06T10:05:02;15.60;;;3.70;;
49384;SDS011;36795;45.028;38.968;2022-07-06T10:07:49;12.95;;;3.47;;
49384;SDS011;36795;45.028;38.968;2022-07-06T10:10:37;20.17;;;3.90;;
49384;SDS011;36795;45.028;38.968;2022-07-06T10:13:24;17.75;;;3.53;;
49384;SDS011;36795;45.028;38.968;2022-07-06T10:16:13;12.37;;;3.55;;
49384;SDS011;36795;45.028;38.968;2022-07-06T10:18:59;18.12;;;3.53;;
49384;SDS011;36795;45.028;38.968;2022-07-06T10:21:50;19.40;;;3.40;;
49384;SDS011;36795;45.028;38.968;2022-07-06T10:24:37;33.20;;;4.72;;
49384;SDS011;36795;45.028;38.968;2022-07-06T10:27:28;14.27;;;3.35;;
49384;SDS011;36795;45.028;38.968;2022-07-06T10:30:15;18.20;;;3.30;;
49384;SDS011;36795;45.028;38.968;2022-07-06T10:33:03;17.58;;;3.40;;
49384;SDS011;36795;45.028;38.968;2022-07-06T10:35:53;12.00;;;2.85;;
49384;SDS011;36795;45.028;38.968;2022-07-06T10:38:54;12.63;;;3.10;;
49384;SDS011;36795;45.028;38.968;2022-07-06T10:41:40;15.63;;;2.90;;
49384;SDS011;36795;45.028;38.968;2022-07-06T10:44:27;13.50;;;2.53;;
49384;SDS011;36795;45.028;38.968;2022-07-06T10:47:13;28.83;;;3.70;;
49384;SDS011;36795;45.028;38.968;2022-07-06T10:50:01;16.62;;;3.60;;
49384;SDS011;36795;45.028;38.968;2022-07-06T10:52:52;12.65;;;2.58;;
49384;SDS011;36795;45.028;38.968;2022-07-06T10:55:46;13.85;;;3.53;;
49384;SDS011;36795;45.028;38.968;2022-07-06T10:58:35;14.18;;;2.87;;
49384;SDS011;36795;45.028;38.968;2022-07-06T11:01:38;17.62;;;4.00;;
49384;SDS011;36795;45.028;38.968;2022-07-06T11:04:30;15.43;;;3.85;;
49384;SDS011;36795;45.028;38.968;2022-07-06T11:07:17;14.27;;;3.60;;
49384;SDS011;36795;45.028;38.968;2022-07-06T11:10:04;12.90;;;3.85;;
49384;SDS011;36795;45.028;38.968;2022-07-06T11:12:58;15.73;;;3.03;;
49384;SDS011;36795;45.028;38.968;2022-07-06T11:15:48;12.60;;;3.10;;
49384;SDS011;36795;45.028;38.968;2022-07-06T11:18:38;9.93;;;2.35;;
49384;SDS011;36795;45.028;38.968;2022-07-06T11:21:33;19.50;;;5.28;;
49384;SDS011;36795;45.028;38.968;2022-07-06T11:24:26;14.48;;;2.78;;
49384;SDS011;36795;45.028;38.968;2022-07-06T11:27:13;7.53;;;2.25;;
49384;SDS011;36795;45.028;38.968;2022-07-06T11:30:00;13.05;;;2.45;;
49384;SDS011;36795;45.028;38.968;2022-07-06T11:32:47;17.23;;;2.90;;
49384;SDS011;36795;45.028;38.968;2022-07-06T11:35:33;12.98;;;2.70;;
49384;SDS011;36795;45.028;38.968;2022-07-06T11:38:26;13.85;;;2.80;;
49384;SDS011;36795;45.028;38.968;2022-07-06T11:41:13;20.20;;;3.25;;
49384;SDS011;36795;45.028;38.968;2022-07-06T11:44:00;21.25;;;3.35;;
49384;SDS011;36795;45.028;38.968;2022-07-06T11:46:46;14.77;;;2.70;;
49384;SDS011;36795;45.028;38.968;2022-07-06T11:49:33;14.98;;;3.15;;
49384;SDS011;36795;45.028;38.968;2022-07-06T11:52:20;15.20;;;2.83;;
49384;SDS011;36795;45.028;38.968;2022-07-06T11:55:08;16.73;;;3.30;;
49384;SDS011;36795;45.028;38.968;2022-07-06T11:57:55;20.92;;;3.45;;
49384;SDS011;36795;45.028;38.968;2022-07-06T12:00:59;13.15;;;2.55;;
49384;SDS011;36795;45.028;38.968;2022-07-06T12:03:59;14.77;;;2.40;;
49384;SDS011;36795;45.028;38.968;2022-07-06T12:06:49;15.00;;;2.65;;
49384;SDS011;36795;45.028;38.968;2022-07-06T12:09:43;7.50;;;2.10;;
49384;SDS011;36795;45.028;38.968;2022-07-06T12:12:31;13.23;;;2.60;;
49384;SDS011;36795;45.028;38.968;2022-07-06T12:15:26;6.87;;;2.08;;
49384;SDS011;36795;45.028;38.968;2022-07-06T12:18:13;11.50;;;2.30;;
49384;SDS011;36795;45.028;38.968;2022-07-06T12:21:17;14.40;;;2.67;;
49384;SDS011;36795;45.028;38.968;2022-07-06T12:24:32;17.33;;;3.05;;
49384;SDS011;36795;45.028;38.968;2022-07-06T12:27:50;6.93;;;2.10;;
49384;SDS011;36795;45.028;38.968;2022-07-06T12:30:45;14.73;;;2.28;;
49384;SDS011;36795;45.028;38.968;2022-07-06T12:33:41;13.75;;;2.50;;
49384;SDS011;36795;45.028;38.968;2022-07-06T12:37:09;14.27;;;2.28;;
49384;SDS011;36795;45.028;38.968;2022-07-06T12:40:15;10.55;;;2.85;;
49384;SDS011;36795;45.028;38.968;2022-07-06T12:49:44;13.75;;;2.60;;
49384;SDS011;36795;45.028;38.968;2022-07-06T12:56:10;14.90;;;3.00;;
49384;SDS011;36795;45.028;38.968;2022-07-06T12:59:20;9.88;;;2.62;;
49384;SDS011;36795;45.028;38.968;2022-07-06T13:02:22;12.15;;;2.65;;
49384;SDS011;36795;45.028;38.968;2022-07-06T13:05:30;18.73;;;3.10;;
49384;SDS011;36795;45.028;38.968;2022-07-06T13:08:32;21.17;;;3.08;;
49384;SDS011;36795;45.028;38.968;2022-07-06T13:11:30;29.77;;;4.93;;
49384;SDS011;36795;45.028;38.968;2022-07-06T13:14:52;14.02;;;2.60;;
49384;SDS011;36795;45.028;38.968;2022-07-06T13:17:49;15.00;;;2.50;;
49384;SDS011;36795;45.028;38.968;2022-07-06T13:20:53;17.37;;;2.67;;
49384;SDS011;36795;45.028;38.968;2022-07-06T13:23:51;14.43;;;3.05;;
49384;SDS011;36795;45.028;38.968;2022-07-06T13:26:56;23.08;;;3.30;;
49384;SDS011;36795;45.028;38.968;2022-07-06T13:30:26;25.58;;;4.87;;
49384;SDS011;36795;45.028;38.968;2022-07-06T13:33:15;17.83;;;2.62;;
49384;SDS011;36795;45.028;38.968;2022-07-06T13:39:19;16.60;;;2.83;;
49384;SDS011;36795;45.028;38.968;2022-07-06T13:42:22;13.35;;;2.70;;
49384;SDS011;36795;45.028;38.968;2022-07-06T13:45:36;22.25;;;3.85;;
49384;SDS011;36795;45.028;38.968;2022-07-06T13:48:36;18.17;;;3.17;;
49384;SDS011;36795;45.028;38.968;2022-07-06T13:51:49;18.23;;;3.83;;
49384;SDS011;36795;45.028;38.968;2022-07-06T13:54:49;12.93;;;3.10;;
49384;SDS011;36795;45.028;38.968;2022-07-06T13:57:54;16.50;;;2.90;;
49384;SDS011;36795;45.028;38.968;2022-07-06T14:01:00;19.75;;;3.22;;
49384;SDS011;36795;45.028;38.968;2022-07-06T14:03:48;16.95;;;2.80;;
49384;SDS011;36795;45.028;38.968;2022-07-06T14:06:34;16.30;;;3.35;;
49384;SDS011;36795;45.028;38.968;2022-07-06T14:09:22;17.90;;;3.17;;
49384;SDS011;36795;45.028;38.968;2022-07-06T14:12:08;14.05;;;3.40;;
49384;SDS011;36795;45.028;38.968;2022-07-06T14:14:55;13.50;;;2.92;;
49384;SDS011;36795;45.028;38.968;2022-07-06T14:17:42;17.55;;;2.70;;
49384;SDS011;36795;45.028;38.968;2022-07-06T14:20:28;17.58;;;3.00;;
49384;SDS011;36795;45.028;38.968;2022-07-06T14:23:14;20.10;;;3.25;;
49384;SDS011;36795;45.028;38.968;2022-07-06T14:26:04;17.60;;;3.90;;
49384;SDS011;36795;45.028;38.968;2022-07-06T14:28:50;15.90;;;3.53;;
49384;SDS011;36795;45.028;38.968;2022-07-06T14:31:37;17.25;;;3.55;;
49384;SDS011;36795;45.028;38.968;2022-07-06T14:34:23;16.83;;;3.47;;
49384;SDS011;36795;45.028;38.968;2022-07-06T14:37:10;19.85;;;3.22;;
49384;SDS011;36795;45.028;38.968;2022-07-06T14:40:00;16.83;;;3.25;;
49384;SDS011;36795;45.028;38.968;2022-07-06T14:42:47;13.85;;;3.50;;
49384;SDS011;36795;45.028;38.968;2022-07-06T14:45:33;14.13;;;3.20;;
49384;SDS011;36795;45.028;38.968;2022-07-06T14:48:19;18.12;;;3.25;;
49384;SDS011;36795;45.028;38.968;2022-07-06T14:51:05;17.73;;;3.30;;
49384;SDS011;36795;45.028;38.968;2022-07-06T14:53:52;19.15;;;3.17;;
49384;SDS011;36795;45.028;38.968;2022-07-06T14:56:38;17.55;;;3.40;;
49384;SDS011;36795;45.028;38.968;2022-07-06T14:59:25;16.08;;;3.60;;
49384;SDS011;36795;45.028;38.968;2022-07-06T15:02:11;16.85;;;3.00;;
49384;SDS011;36795;45.028;38.968;2022-07-06T15:04:58;17.12;;;3.00;;
49384;SDS011;36795;45.028;38.968;2022-07-06T15:07:43;22.37;;;3.78;;
49384;SDS011;36795;45.028;38.968;2022-07-06T15:10:30;24.08;;;3.87;;
49384;SDS011;36795;45.028;38.968;2022-07-06T15:13:16;17.62;;;3.03;;
49384;SDS011;36795;45.028;38.968;2022-07-06T15:16:03;16.62;;;3.30;;
49384;SDS011;36795;45.028;38.968;2022-07-06T15:18:49;15.20;;;3.17;;
49384;SDS011;36795;45.028;38.968;2022-07-06T15:21:35;13.25;;;3.00;;
49384;SDS011;36795;45.028;38.968;2022-07-06T15:24:22;14.65;;;3.50;;
49384;SDS011;36795;45.028;38.968;2022-07-06T15:27:11;17.90;;;3.05;;
49384;SDS011;36795;45.028;38.968;2022-07-06T15:29:57;13.70;;;3.50;;
49384;SDS011;36795;45.028;38.968;2022-07-06T15:32:44;15.80;;;3.30;;
49384;SDS011;36795;45.028;38.968;2022-07-06T15:35:30;14.10;;;2.90;;
49384;SDS011;36795;45.028;38.968;2022-07-06T15:38:20;16.10;;;3.20;;
49384;SDS011;36795;45.028;38.968;2022-07-06T15:41:05;22.77;;;5.75;;
49384;SDS011;36795;45.028;38.968;2022-07-06T15:43:53;23.33;;;3.80;;
49384;SDS011;36795;45.028;38.968;2022-07-06T15:46:39;18.50;;;3.15;;
49384;SDS011;36795;45.028;38.968;2022-07-06T15:49:25;16.55;;;3.40;;
49384;SDS011;36795;45.028;38.968;2022-07-06T15:52:11;22.40;;;3.45;;
49384;SDS011;36795;45.028;38.968;2022-07-06T15:54:57;15.75;;;3.12;;
49384;SDS011;36795;45.028;38.968;2022-07-06T15:57:43;18.90;;;3.47;;
49384;SDS011;36795;45.028;38.968;2022-07-06T16:00:29;17.25;;;3.92;;
49384;SDS011;36795;45.028;38.968;2022-07-06T16:03:17;22.33;;;3.53;;
49384;SDS011;36795;45.028;38.968;2022-07-06T16:06:06;14.87;;;3.20;;
49384;SDS011;36795;45.028;38.968;2022-07-06T16:08:53;18.87;;;3.60;;
49384;SDS011;36795;45.028;38.968;2022-07-06T16:11:39;13.93;;;3.17;;
49384;SDS011;36795;45.028;38.968;2022-07-06T16:14:26;18.83;;;3.75;;
49384;SDS011;36795;45.028;38.968;2022-07-06T16:17:13;15.98;;;3.45;;
49384;SDS011;36795;45.028;38.968;2022-07-06T16:20:00;19.25;;;3.87;;
49384;SDS011;36795;45.028;38.968;2022-07-06T16:22:46;20.90;;;3.72;;
49384;SDS011;36795;45.028;38.968;2022-07-06T16:25:36;22.77;;;4.22;;
49384;SDS011;36795;45.028;38.968;2022-07-06T16:28:22;19.37;;;4.43;;
49384;SDS011;36795;45.028;38.968;2022-07-06T16:31:13;28.08;;;4.72;;
49384;SDS011;36795;45.028;38.968;2022-07-06T16:34:03;18.60;;;3.87;;
49384;SDS011;36795;45.028;38.968;2022-07-06T16:36:49;23.42;;;3.60;;
49384;SDS011;36795;45.028;38.968;2022-07-06T16:39:37;20.62;;;4.70;;